Archival Weather

Fukuoka

Fukuoka, Japan (RJFF)

Report from: Monday, August 15, 2022 6:00 AM JST
Current time: Sunday, February 25, 2024 2:05 AM JST

Current weather – Weather history – Daily summaries
Weather forecast

Temperature28.0°C (82.4°F)
Heat index32.7°C (90.9°F)
Dew point25.0°C (77.0°F)
Winds 9 kts (4.6 m/s, 10.4 mph) South-Southeast (150°)
Visibility6.2 mi. (10 km)
Clouds Few clouds 1,000 ft. (305 m)
Scattered clouds 3,500 ft. (1,067 m)
Ceiling: Broken clouds 16,000 ft. (4,877 m)
Altimeter29.77 in.Hg (1008 mB)
Relative humidity84 %
Density altitude2,096 ft. (639 m)
Remarks No significant changes expected in the next two hours
Flight conditions Visual Meteorological Conditions
Raw dataRJFF 142100Z 15009KT 9999 FEW010 SCT035 BKN160 28/25 Q1008 NOSIG
An error has occurred. This application may no longer respond until reloaded. Reload 🗙